Time;durP1;ratioP1;P1;durP2;ratioP2;P2;SDS_P1;SDS_P2;PMS_P1;PMS_P2;Temp;Humidity;BMP_temperature;BMP_pressure;BME280_temperature;BME280_humidity;BME280_pressure;Samples;Min_cycle;Max_cycle;Signal;HPM_P1;HPM_P2
2023/09/14 00:01:16;;;;;;;7.55;2.10;;;;;;;14.40;100.00;102138.97;5109460;28;20044;-55
2023/09/14 00:03:45;;;;;;;10.75;2.53;;;;;;;14.42;100.00;102139.72;5108061;28;20050;-55
2023/09/14 00:06:14;;;;;;;10.60;2.30;;;;;;;14.36;100.00;102135.66;5108569;28;20040;-55
2023/09/14 00:08:44;;;;;;;6.90;2.25;;;;;;;14.27;100.00;102137.06;5112522;28;20047;-56
2023/09/14 00:11:13;;;;;;;6.80;2.17;;;;;;;14.32;100.00;102129.69;5110405;28;20036;-54
2023/09/14 00:13:42;;;;;;;8.95;1.98;;;;;;;14.36;100.00;102138.31;5107188;28;20059;-55
2023/09/14 00:16:11;;;;;;;8.93;2.05;;;;;;;14.28;100.00;102138.78;5107854;28;20051;-53
2023/09/14 00:18:39;;;;;;;7.53;2.15;;;;;;;14.31;100.00;102143.03;5108243;28;20464;-52
2023/09/14 00:21:08;;;;;;;7.78;2.10;;;;;;;14.25;100.00;102141.59;5112218;28;20483;-55
2023/09/14 00:23:36;;;;;;;6.03;2.13;;;;;;;14.25;100.00;102141.59;5109796;28;20043;-55
2023/09/14 00:26:06;;;;;;;9.40;2.30;;;;;;;14.23;100.00;102140.84;5107508;28;20063;-55
2023/09/14 00:28:35;;;;;;;14.63;2.60;;;;;;;14.25;100.00;102133.66;5110331;28;20054;-54
2023/09/14 00:31:03;;;;;;;11.60;2.38;;;;;;;14.29;100.00;102129.03;5112047;28;20463;-55
2023/09/14 00:33:32;;;;;;;11.43;2.40;;;;;;;14.25;100.00;102127.50;5112205;28;20494;-55
2023/09/14 00:36:00;;;;;;;9.05;2.45;;;;;;;14.23;100.00;102138.19;5112404;28;20035;-54
2023/09/14 00:38:29;;;;;;;9.98;2.40;;;;;;;14.25;100.00;102131.03;5111972;28;20046;-55
2023/09/14 00:40:57;;;;;;;5.47;1.92;;;;;;;14.34;100.00;102137.53;5108676;28;20401;-55
2023/09/14 00:43:27;;;;;;;8.73;2.40;;;;;;;14.35;100.00;102132.16;5107705;28;20048;-56
2023/09/14 00:45:55;;;;;;;7.85;2.03;;;;;;;14.34;100.00;102130.47;5109007;28;20502;-56
2023/09/14 00:48:24;;;;;;;11.65;2.40;;;;;;;14.39;100.00;102121.41;5112149;28;20107;-55
2023/09/14 00:50:53;;;;;;;9.98;2.33;;;;;;;14.39;100.00;102129.34;5112061;28;20389;-52
2023/09/14 00:53:21;;;;;;;11.15;2.63;;;;;;;14.41;100.00;102127.44;5107036;28;20052;-55
2023/09/14 00:55:50;;;;;;;8.35;2.58;;;;;;;14.33;100.00;102133.22;5107075;28;20048;-56
2023/09/14 00:58:19;;;;;;;12.52;2.15;;;;;;;14.43;100.00;102131.69;5108278;28;20414;-55
2023/09/14 01:00:50;;;;;;;10.13;2.20;;;;;;;14.37;100.00;102129.44;5107689;28;20093;-55
2023/09/14 01:03:18;;;;;;;8.38;2.25;;;;;;;14.41;100.00;102125.66;5109252;28;20059;-54
2023/09/14 01:05:49;;;;;;;8.27;2.13;;;;;;;14.38;100.00;102128.47;5111851;28;20118;-55
2023/09/14 01:08:17;;;;;;;9.20;2.53;;;;;;;14.35;100.00;102129.50;5111834;28;20147;-55
2023/09/14 01:10:46;;;;;;;8.60;2.30;;;;;;;14.33;100.00;102127.94;5111638;28;20130;-55
2023/09/14 01:13:23;;;;;;;9.75;2.33;;;;;;;14.39;100.00;102124.06;5110716;28;20044;-56
2023/09/14 01:15:58;;;;;;;7.63;2.40;;;;;;;14.33;100.00;102128.75;5107110;28;20082;-55
2023/09/14 01:18:30;;;;;;;8.77;2.15;;;;;;;14.33;100.00;102125.28;5106591;28;20081;-55
2023/09/14 01:21:30;;;;;;;9.00;2.72;;;;;;;14.35;100.00;102131.31;5110872;28;20044;-55
2023/09/14 01:24:10;;;;;;;7.28;2.28;;;;;;;14.35;100.00;102129.50;5109389;28;20058;-55
2023/09/14 01:26:41;;;;;;;11.07;2.78;;;;;;;14.33;100.00;102131.41;5108685;28;20043;-55
2023/09/14 01:29:10;;;;;;;12.07;2.90;;;;;;;14.31;100.00;102128.00;5115173;28;20059;-55
2023/09/14 01:31:39;;;;;;;10.30;2.97;;;;;;;14.27;100.00;102131.75;5112548;28;20093;-56
2023/09/14 01:34:07;;;;;;;6.28;2.22;;;;;;;14.18;100.00;102133.19;5111436;28;20050;-55
2023/09/14 01:36:43;;;;;;;10.57;2.95;;;;;;;14.13;100.00;102129.97;5108957;28;20044;-55
2023/09/14 01:39:13;;;;;;;11.27;2.60;;;;;;;14.14;100.00;102126.38;5110782;28;20805;-56
2023/09/14 01:41:44;;;;;;;10.82;2.55;;;;;;;14.22;100.00;102123.28;5109948;28;20047;-56
2023/09/14 01:44:13;;;;;;;12.88;3.25;;;;;;;14.21;100.00;102129.50;5115243;28;20432;-56
2023/09/14 01:46:42;;;;;;;15.65;3.45;;;;;;;14.21;100.00;102121.56;5113479;28;20055;-55
2023/09/14 01:49:10;;;;;;;8.23;2.58;;;;;;;14.26;100.00;102126.56;5111157;28;20104;-55
2023/09/14 01:51:39;;;;;;;10.60;3.00;;;;;;;14.26;100.00;102121.28;5113230;28;20063;-56
2023/09/14 01:54:08;;;;;;;9.27;3.00;;;;;;;14.28;100.00;102125.53;5113596;28;20082;-53
2023/09/14 01:56:37;;;;;;;14.82;3.58;;;;;;;14.34;100.00;102121.66;5114712;28;20567;-54
2023/09/14 01:59:07;;;;;;;9.38;2.65;;;;;;;14.39;100.00;102124.06;5113520;28;20089;-54
2023/09/14 02:01:35;;;;;;;9.65;2.70;;;;;;;14.43;100.00;102122.91;5110120;28;20054;-55
2023/09/14 02:04:06;;;;;;;9.02;2.78;;;;;;;14.43;100.00;102125.56;5111028;28;20036;-54
2023/09/14 02:06:35;;;;;;;9.25;3.05;;;;;;;14.44;100.00;102119.31;5108548;28;20048;-55
2023/09/14 02:09:03;;;;;;;10.30;3.25;;;;;;;14.35;100.00;102120.72;5109412;28;20073;-53
2023/09/14 02:11:32;;;;;;;8.73;2.72;;;;;;;14.36;100.00;102125.09;5109961;28;20119;-55
2023/09/14 02:14:01;;;;;;;8.85;2.97;;;;;;;14.32;100.00;102118.28;5110718;28;20112;-56
2023/09/14 02:16:31;;;;;;;9.25;3.08;;;;;;;14.29;100.00;102114.03;5109853;28;20403;-56
2023/09/14 02:18:59;;;;;;;9.43;3.50;;;;;;;14.25;100.00;102112.50;5109906;28;20058;-54
2023/09/14 02:21:27;;;;;;;10.27;2.97;;;;;;;14.25;100.00;102106.34;5109975;28;20585;-56
2023/09/14 02:23:57;;;;;;;11.30;2.90;;;;;;;14.21;100.00;102105.69;5112391;28;20047;-56
2023/09/14 02:26:25;;;;;;;9.82;3.28;;;;;;;14.11;100.00;102104.53;5109456;28;20050;-56
2023/09/14 02:28:54;;;;;;;12.57;3.08;;;;;;;14.15;100.00;102106.06;5109894;28;20119;-55
2023/09/14 02:31:22;;;;;;;10.93;3.40;;;;;;;14.10;100.00;102103.69;5109697;28;20057;-55
2023/09/14 02:33:52;;;;;;;9.60;3.22;;;;;;;14.11;100.00;102109.81;5109497;28;20093;-54
2023/09/14 02:36:21;;;;;;;11.38;3.05;;;;;;;14.13;100.00;102102.66;5112905;28;20439;-55
2023/09/14 02:38:49;;;;;;;10.70;3.25;;;;;;;14.12;100.00;102100.94;5110433;28;20082;-55
2023/09/14 02:41:18;;;;;;;9.63;3.00;;;;;;;14.02;100.00;102096.22;5108364;28;20043;-54
2023/09/14 02:43:46;;;;;;;9.65;3.13;;;;;;;14.05;100.00;102095.19;5112679;28;20044;-56
2023/09/14 02:46:15;;;;;;;9.27;3.00;;;;;;;13.99;100.00;102096.41;5112434;28;20053;-55
2023/09/14 02:48:45;;;;;;;8.60;3.25;;;;;;;13.95;100.00;102089.59;5109481;28;20051;-53
2023/09/14 02:51:16;;;;;;;9.63;3.15;;;;;;;13.90;100.00;102102.22;5110010;28;20060;-55
2023/09/14 02:53:46;;;;;;;10.40;3.20;;;;;;;13.94;100.00;102097.63;5109925;28;20044;-56
2023/09/14 02:56:15;;;;;;;12.55;3.47;;;;;;;13.81;100.00;102098.34;5111143;28;20047;-56
2023/09/14 02:58:43;;;;;;;9.48;3.40;;;;;;;13.60;100.00;102089.88;5107823;28;20925;-63
2023/09/14 03:01:12;;;;;;;10.35;3.50;;;;;;;13.64;100.00;102098.50;5112305;28;20418;-62
2023/09/14 03:03:41;;;;;;;8.23;3.35;;;;;;;13.60;100.00;102100.44;5112390;28;20075;-63
2023/09/14 03:06:09;;;;;;;10.65;3.67;;;;;;;13.60;100.00;102095.16;5112166;28;20039;-63
2023/09/14 03:08:39;;;;;;;9.52;2.78;;;;;;;13.45;100.00;102096.06;5107865;28;20398;-62
2023/09/14 03:11:08;;;;;;;11.50;3.42;;;;;;;13.38;100.00;102092.91;5112314;28;20056;-63
2023/09/14 03:13:36;;;;;;;9.63;3.20;;;;;;;13.32;100.00;102095.84;5109159;28;20426;-62
2023/09/14 03:16:05;;;;;;;10.68;3.40;;;;;;;13.33;100.00;102101.09;5109381;28;20055;-64
2023/09/14 03:18:33;;;;;;;9.02;3.67;;;;;;;13.32;100.00;102107.31;5108490;28;20494;-61
2023/09/14 03:21:02;;;;;;;9.85;3.05;;;;;;;13.41;100.00;102102.47;5111667;28;20559;-63
2023/09/14 03:23:30;;;;;;;5.85;2.75;;;;;;;13.31;100.00;102100.31;5113026;28;20043;-63
2023/09/14 03:26:00;;;;;;;9.20;3.10;;;;;;;13.31;100.00;102100.31;5108797;28;20502;-62
2023/09/14 03:28:29;;;;;;;7.70;3.15;;;;;;;13.27;100.00;102097.94;5108438;28;20044;-63
2023/09/14 03:30:57;;;;;;;11.35;3.17;;;;;;;13.21;100.00;102104.41;5113409;28;20043;-63
2023/09/14 03:33:25;;;;;;;8.68;3.22;;;;;;;13.14;100.00;102108.31;5112994;28;20052;-63
2023/09/14 03:35:54;;;;;;;7.80;2.97;;;;;;;13.08;100.00;102111.31;5109849;28;20491;-63
2023/09/14 03:38:22;;;;;;;7.85;2.95;;;;;;;12.97;100.00;102110.13;5107279;28;20387;-64
2023/09/14 03:40:51;;;;;;;8.48;3.25;;;;;;;12.90;100.00;102114.03;5113179;28;20054;-63
2023/09/14 03:43:21;;;;;;;13.50;3.47;;;;;;;12.82;100.00;102117.09;5112938;28;20494;-63
2023/09/14 03:45:49;;;;;;;10.95;2.95;;;;;;;12.89;100.00;102117.59;5113135;28;20117;-63
2023/09/14 03:48:18;;;;;;;12.55;3.92;;;;;;;12.87;100.00;102115.97;5110328;28;20044;-63
2023/09/14 03:50:46;;;;;;;9.00;3.33;;;;;;;12.79;100.00;102122.53;5107723;28;20043;-64
2023/09/14 03:53:15;;;;;;;10.38;2.83;;;;;;;12.84;100.00;102112.59;5112453;28;20089;-63
2023/09/14 03:55:43;;;;;;;6.90;2.90;;;;;;;12.77;100.00;102115.63;5111082;28;20051;-63
2023/09/14 03:58:12;;;;;;;10.38;3.13;;;;;;;12.69;100.00;102116.03;5109302;28;20031;-63
2023/09/14 04:00:42;;;;;;;9.80;3.33;;;;;;;12.65;100.00;102109.22;5111371;28;20441;-63
2023/09/14 04:03:11;;;;;;;7.43;3.20;;;;;;;12.68;100.00;102120.47;5107820;28;20047;-63
2023/09/14 04:05:40;;;;;;;12.32;3.70;;;;;;;12.62;100.00;102118.16;5108591;28;20047;-64
2023/09/14 04:08:09;;;;;;;9.18;3.17;;;;;;;12.58;100.00;102113.97;5112455;28;20131;-63
2023/09/14 04:10:38;;;;;;;8.40;2.78;;;;;;;12.57;100.00;102114.06;5112554;28;20455;-63
2023/09/14 04:13:26;;;;;;;9.50;2.95;;;;;;;12.53;100.00;102113.41;5112321;28;20051;-63
2023/09/14 04:15:57;;;;;;;7.90;3.00;;;;;;;12.54;100.00;102109.78;5112324;28;20126;-63
2023/09/14 04:18:26;;;;;;;7.68;2.75;;;;;;;12.45;100.00;102102.41;5112207;28;20130;-63
2023/09/14 04:20:55;;;;;;;10.45;3.10;;;;;;;12.43;100.00;102107.72;5110965;28;20409;-63
2023/09/14 04:23:23;;;;;;;9.85;3.47;;;;;;;12.44;100.00;102108.59;5106509;28;20071;-64
2023/09/14 04:25:52;;;;;;;6.43;2.72;;;;;;;12.29;100.00;102107.63;5107667;28;20074;-63
2023/09/14 04:28:21;;;;;;;8.10;2.80;;;;;;;12.29;100.00;102108.47;5106477;28;20052;-62
2023/09/14 04:30:52;;;;;;;7.03;2.75;;;;;;;12.29;100.00;102105.81;5107951;28;20122;-64
2023/09/14 04:33:22;;;;;;;9.80;3.15;;;;;;;12.28;100.00;102106.75;5108166;28;20122;-63
2023/09/14 04:35:56;;;;;;;11.00;3.25;;;;;;;12.26;100.00;102110.44;5108168;28;20490;-63
2023/09/14 04:38:25;;;;;;;8.93;2.88;;;;;;;12.24;100.00;102107.00;5108269;28;20054;-63
2023/09/14 04:40:54;;;;;;;7.55;3.10;;;;;;;12.21;100.00;102108.00;5110673;28;20055;-63
2023/09/14 04:43:24;;;;;;;7.07;3.28;;;;;;;12.16;100.00;102115.31;5112207;28;20048;-62
2023/09/14 04:45:52;;;;;;;8.13;3.03;;;;;;;12.13;100.00;102113.69;5112088;28;20370;-62
2023/09/14 04:48:22;;;;;;;7.43;3.22;;;;;;;12.10;100.00;102105.09;5111912;28;20050;-63
2023/09/14 04:50:51;;;;;;;10.35;3.25;;;;;;;12.04;100.00;102106.25;5112074;28;20044;-63
2023/09/14 04:53:20;;;;;;;9.30;3.40;;;;;;;12.04;100.00;102110.66;5106629;28;20046;-63
2023/09/14 04:55:48;;;;;;;8.38;3.15;;;;;;;12.01;100.00;102122.22;5106916;28;20146;-62
2023/09/14 04:58:17;;;;;;;8.65;3.10;;;;;;;12.00;100.00;102120.53;5106504;28;20082;-64
2023/09/14 05:00:48;;;;;;;7.40;2.95;;;;;;;11.99;100.00;102121.44;5108670;28;20455;-64
2023/09/14 05:03:17;;;;;;;7.85;2.78;;;;;;;11.96;100.00;102119.81;5115834;28;20046;-62
2023/09/14 05:05:51;;;;;;;7.88;3.17;;;;;;;11.84;100.00;102117.78;5112800;28;20049;-63
2023/09/14 05:08:20;;;;;;;7.95;3.53;;;;;;;11.85;100.00;102119.50;5110426;28;20051;-62
2023/09/14 05:10:49;;;;;;;9.55;3.40;;;;;;;11.91;100.00;102119.16;5111044;28;20402;-62
2023/09/14 05:13:20;;;;;;;8.30;4.00;;;;;;;11.83;100.00;102116.06;5113735;28;20047;-63
2023/09/14 05:15:49;;;;;;;11.23;4.50;;;;;;;11.87;100.00;102119.41;5112338;28;20059;-63
2023/09/14 05:18:18;;;;;;;8.43;3.58;;;;;;;11.84;100.00;102115.13;5111533;28;20051;-64
2023/09/14 05:20:48;;;;;;;6.97;3.35;;;;;;;11.90;100.00;102124.50;5111448;28;20502;-63
2023/09/14 05:23:17;;;;;;;9.70;3.92;;;;;;;11.89;100.00;102126.31;5109624;28;20044;-64
2023/09/14 05:25:46;;;;;;;8.57;3.75;;;;;;;11.94;100.00;102116.44;5110523;28;20498;-63
2023/09/14 05:28:15;;;;;;;8.60;3.47;;;;;;;11.94;100.00;102128.69;5114064;28;20043;-63
2023/09/14 05:30:44;;;;;;;7.75;3.50;;;;;;;11.86;100.00;102129.06;5115422;28;20040;-63
2023/09/14 05:33:13;;;;;;;9.82;3.60;;;;;;;11.84;100.00;102125.69;5114050;28;20044;-63
2023/09/14 05:35:43;;;;;;;9.43;3.70;;;;;;;11.80;100.00;102124.97;5111322;28;20047;-63
2023/09/14 05:38:13;;;;;;;7.90;3.63;;;;;;;11.71;100.00;102125.47;5111942;28;20046;-64
2023/09/14 05:40:42;;;;;;;10.13;3.60;;;;;;;11.79;100.00;102128.56;5112216;28;20050;-63
2023/09/14 05:43:10;;;;;;;10.50;3.63;;;;;;;11.87;100.00;102137.84;5111169;28;20043;-64
2023/09/14 05:45:41;;;;;;;10.15;3.22;;;;;;;11.81;100.00;102137.22;5110290;28;20379;-63
2023/09/14 05:48:10;;;;;;;9.38;4.25;;;;;;;11.79;100.00;102133.84;5111550;28;20391;-64
2023/09/14 05:50:38;;;;;;;13.35;3.67;;;;;;;11.83;100.00;102132.75;5114955;28;20071;-63
2023/09/14 05:53:07;;;;;;;8.88;3.10;;;;;;;11.93;100.00;102137.53;5112532;28;20047;-64
2023/09/14 05:55:36;;;;;;;10.82;3.45;;;;;;;11.95;100.00;102141.00;5109761;28;20039;-63
2023/09/14 05:58:05;;;;;;;8.15;3.53;;;;;;;11.84;100.00;102130.97;5114681;28;20044;-64
2023/09/14 06:00:34;;;;;;;9.60;4.07;;;;;;;11.93;100.00;102141.03;5114774;28;20058;-63
2023/09/14 06:03:02;;;;;;;10.52;3.95;;;;;;;11.93;100.00;102141.03;5114855;28;20035;-64
2023/09/14 06:05:31;;;;;;;9.57;4.00;;;;;;;11.97;100.00;102139.13;5114973;28;20036;-64
2023/09/14 06:08:00;;;;;;;14.55;4.32;;;;;;;11.98;100.00;102144.34;5114888;28;20055;-63
2023/09/14 06:10:28;;;;;;;12.02;4.53;;;;;;;11.97;100.00;102142.63;5114588;28;20133;-63
2023/09/14 06:12:58;;;;;;;13.25;4.80;;;;;;;11.98;100.00;102141.69;5113606;28;20048;-63
2023/09/14 06:15:26;;;;;;;9.85;4.03;;;;;;;11.99;100.00;102153.09;5114401;28;20074;-64
2023/09/14 06:17:55;;;;;;;14.35;4.97;;;;;;;12.07;100.00;102150.06;5114549;28;20061;-64
2023/09/14 06:20:23;;;;;;;13.90;4.97;;;;;;;12.17;100.00;102141.63;5111814;28;20040;-64
2023/09/14 06:22:52;;;;;;;9.65;4.43;;;;;;;12.26;100.00;102142.91;5108779;28;20498;-64
2023/09/14 06:25:21;;;;;;;15.35;4.80;;;;;;;12.34;100.00;102151.28;5113879;28;20055;-64
2023/09/14 06:27:50;;;;;;;13.65;4.97;;;;;;;12.46;100.00;102144.53;5114129;28;20142;-64
2023/09/14 06:30:20;;;;;;;14.10;4.78;;;;;;;12.56;100.00;102147.53;5114229;28;20044;-64
2023/09/14 06:32:48;;;;;;;11.43;4.82;;;;;;;12.67;100.00;102152.25;5113050;28;20048;-63
2023/09/14 06:35:17;;;;;;;13.32;5.22;;;;;;;12.77;100.00;102148.16;5111229;28;20493;-64
2023/09/14 06:37:46;;;;;;;12.00;5.50;;;;;;;12.77;100.00;102152.59;5106402;28;20052;-64
2023/09/14 06:40:14;;;;;;;9.88;4.82;;;;;;;12.82;100.00;102151.41;5110022;28;20044;-64
2023/09/14 06:42:43;;;;;;;9.90;4.22;;;;;;;12.89;100.00;102149.28;5114295;28;20127;-64
2023/09/14 06:45:11;;;;;;;12.32;4.97;;;;;;;12.91;100.00;102150.06;5113924;28;20055;-64
2023/09/14 06:47:41;;;;;;;11.77;4.78;;;;;;;12.93;100.00;102150.00;5114071;28;20483;-63
2023/09/14 06:50:12;;;;;;;13.35;5.40;;;;;;;13.00;100.00;102159.28;5113914;28;20071;-63
2023/09/14 06:52:40;;;;;;;9.30;4.18;;;;;;;13.10;100.00;102159.63;5113935;28;20043;-63
2023/09/14 06:55:09;;;;;;;14.10;4.78;;;;;;;13.14;100.00;102164.66;5112445;28;20048;-63
2023/09/14 06:57:38;;;;;;;13.30;5.05;;;;;;;13.27;100.00;102167.47;5112326;28;20047;-63
2023/09/14 07:00:14;;;;;;;13.30;4.75;;;;;;;13.37;100.00;102164.34;5113861;28;20538;-63
2023/09/14 07:02:44;;;;;;;9.18;4.32;;;;;;;13.63;100.00;102169.00;5113129;28;20043;-63
2023/09/14 07:05:13;;;;;;;10.75;4.60;;;;;;;13.68;100.00;102166.94;5112880;28;20508;-63
2023/09/14 07:07:42;;;;;;;13.27;4.72;;;;;;;13.73;100.00;102168.47;5107330;28;20528;-63
2023/09/14 07:10:11;;;;;;;11.68;5.07;;;;;;;13.80;100.00;102172.47;5109376;28;20737;-63
2023/09/14 07:12:40;;;;;;;9.82;4.20;;;;;;;13.89;100.00;102174.56;5108523;28;20054;-63
2023/09/14 07:15:10;;;;;;;9.90;4.18;;;;;;;13.96;100.00;102180.34;5112828;28;20052;-63
2023/09/14 07:17:38;;;;;;;10.80;4.50;;;;;;;14.11;100.00;102171.53;5113567;28;20405;-63
2023/09/14 07:20:10;;;;;;;10.35;4.70;;;;;;;14.23;100.00;102177.88;5113230;28;20473;-63
2023/09/14 07:22:38;;;;;;;15.77;4.72;;;;;;;14.38;100.00;102176.09;5113115;28;20062;-63
2023/09/14 07:25:08;;;;;;;14.27;4.68;;;;;;;14.45;100.00;102173.94;5112849;28;20097;-63
2023/09/14 07:27:37;;;;;;;11.80;4.57;;;;;;;14.58;100.00;102177.56;5112735;28;20136;-63
2023/09/14 07:30:07;;;;;;;11.07;4.55;;;;;;;14.62;100.00;102179.06;5113109;28;20039;-63
2023/09/14 07:32:35;;;;;;;12.48;4.50;;;;;;;14.64;100.00;102174.56;5111579;28;20052;-63
2023/09/14 07:35:05;;;;;;;11.35;4.65;;;;;;;14.74;100.00;102177.50;5112867;28;20044;-62
2023/09/14 07:37:36;;;;;;;13.48;5.28;;;;;;;14.81;100.00;102180.63;5112602;28;20054;-63
2023/09/14 07:40:06;;;;;;;11.25;5.07;;;;;;;14.88;100.00;102185.44;5111351;28;20051;-63
2023/09/14 07:42:35;;;;;;;11.95;3.97;;;;;;;14.96;100.00;102192.06;5108394;28;20636;-63
2023/09/14 07:45:03;;;;;;;12.73;4.05;;;;;;;15.04;100.00;102195.91;5108427;28;20040;-63
2023/09/14 07:47:32;;;;;;;13.30;4.80;;;;;;;15.20;100.00;102187.00;5110065;27;20550;-63
2023/09/14 07:50:01;;;;;;;11.70;4.40;;;;;;;15.28;100.00;102197.13;5109820;28;20092;-63
2023/09/14 07:52:29;;;;;;;10.60;3.67;;;;;;;15.36;100.00;102198.31;5106617;28;20050;-63
2023/09/14 07:55:00;;;;;;;12.30;4.38;;;;;;;15.48;100.00;102199.34;5107278;28;20551;-63
2023/09/14 07:57:29;;;;;;;11.02;4.13;;;;;;;15.60;100.00;102199.47;5112216;28;20112;-63
2023/09/14 07:59:57;;;;;;;14.13;4.40;;;;;;;15.78;100.00;102200.09;5112404;28;20055;-63
2023/09/14 08:02:27;;;;;;;11.00;4.38;;;;;;;15.95;100.00;102206.97;5110999;28;20050;-62
2023/09/14 08:04:55;;;;;;;14.70;4.00;;;;;;;16.14;100.00;102207.44;5112695;28;20046;-63
2023/09/14 08:07:24;;;;;;;8.15;4.00;;;;;;;16.33;100.00;102206.19;5111378;28;20061;-63
2023/09/14 08:09:53;;;;;;;10.45;3.75;;;;;;;16.54;100.00;102201.22;5106972;28;20051;-63
2023/09/14 08:12:23;;;;;;;9.35;3.58;;;;;;;16.71;100.00;102206.22;5109551;28;20050;-62
2023/09/14 08:14:51;;;;;;;11.88;3.75;;;;;;;16.81;100.00;102197.59;5109775;28;20055;-63
2023/09/14 08:17:20;;;;;;;11.07;3.90;;;;;;;16.91;100.00;102201.34;5107935;28;20558;-62
2023/09/14 08:19:48;;;;;;;11.05;3.40;;;;;;;17.04;100.00;102206.63;5111260;28;20051;-63
2023/09/14 08:22:22;;;;;;;15.18;3.83;;;;;;;17.06;100.00;102210.03;5112053;28;20074;-63
2023/09/14 08:24:51;;;;;;;8.45;3.40;;;;;;;17.27;100.00;102210.28;5100138;28;20771;-62
2023/09/14 08:27:20;;;;;;;10.20;3.22;;;;;;;17.47;100.00;102213.31;5107005;28;20044;-63
2023/09/14 08:29:50;;;;;;;10.18;3.40;;;;;;;17.53;100.00;102203.09;5106605;28;20464;-62
2023/09/14 08:32:18;;;;;;;8.02;2.78;;;;;;;17.80;100.00;102206.47;5107474;28;20050;-61
2023/09/14 08:34:47;;;;;;;11.13;3.55;;;;;;;17.80;100.00;102203.81;5107832;28;20058;-62
2023/09/14 08:37:16;;;;;;;10.90;3.67;;;;;;;17.81;100.00;102208.19;5104951;28;20143;-62
2023/09/14 08:39:44;;;;;;;13.35;3.67;;;;;;;17.96;100.00;102204.41;5108286;28;20431;-62
2023/09/14 08:42:13;;;;;;;13.77;3.10;;;;;;;18.06;100.00;102196.56;5111845;28;20053;-62
2023/09/14 08:44:44;;;;;;;10.35;3.22;;;;;;;18.24;100.00;102203.16;5110340;28;20146;-63
2023/09/14 08:47:15;;;;;;;11.98;3.42;;;;;;;18.53;100.00;102202.72;5112002;28;20063;-62
2023/09/14 08:49:47;;;;;;;17.48;3.92;;;;;;;18.73;100.00;102202.97;5111758;28;20067;-62
2023/09/14 08:52:18;;;;;;;10.45;3.40;;;;;;;18.89;100.00;102199.97;5107507;28;20215;-63
2023/09/14 08:54:48;;;;;;;9.68;2.58;;;;;;;19.08;100.00;102202.03;5105510;28;20053;-62
2023/09/14 08:57:17;;;;;;;14.38;3.47;;;;;;;19.26;100.00;102202.34;5107594;28;20536;-61
2023/09/14 08:59:45;;;;;;;11.93;3.63;;;;;;;19.53;100.00;102201.91;5107517;28;20046;-62
2023/09/14 09:02:17;;;;;;;11.88;3.55;;;;;;;19.75;100.00;102194.81;5107159;28;20506;-62
2023/09/14 09:04:46;;;;;;;10.97;3.77;;;;;;;19.97;100.00;102193.06;5107494;28;20063;-62
2023/09/14 09:07:15;;;;;;;17.42;4.90;;;;;;;20.10;100.00;102202.56;5106534;28;20459;-62
2023/09/14 09:09:44;;;;;;;10.88;4.85;;;;;;;19.88;100.00;102197.34;5104312;28;20059;-59
2023/09/14 09:12:12;;;;;;;14.90;4.85;;;;;;;20.17;100.00;102199.38;5107925;28;20549;-62
2023/09/14 09:14:45;;;;;;;11.25;4.72;;;;;;;20.34;100.00;102197.94;5106637;28;20094;-61
2023/09/14 09:17:15;;;;;;;11.82;4.53;;;;;;;20.46;100.00;102191.53;5106858;28;20100;-61
2023/09/14 09:19:48;;;;;;;9.98;4.50;;;;;;;20.28;100.00;102191.31;5106919;28;20050;-61
2023/09/14 09:22:17;;;;;;;11.85;4.70;;;;;;;20.51;100.00;102185.81;5106555;28;20050;-51
2023/09/14 09:24:46;;;;;;;15.45;5.28;;;;;;;20.76;100.00;102187.22;5111131;28;20036;-50
2023/09/14 09:27:27;;;;;;;11.05;4.63;;;;;;;20.96;100.00;102179.28;5111356;28;20123;-53
2023/09/14 09:29:59;;;;;;;15.07;5.78;;;;;;;21.04;100.00;102182.94;5111572;28;20052;-49
2023/09/14 09:32:29;;;;;;;12.25;6.05;;;;;;;21.18;100.00;102181.72;5111372;28;20379;-49
2023/09/14 09:35:01;;;;;;;13.50;5.93;;;;;;;21.32;100.00;102184.97;5111662;28;20051;-54
2023/09/14 09:37:35;;;;;;;16.85;5.53;;;;;;;21.26;100.00;102178.34;5111460;28;20051;-49
2023/09/14 09:40:05;;;;;;;14.15;6.15;;;;;;;21.54;100.00;102175.88;5111508;28;20055;-51
2023/09/14 09:42:34;;;;;;;13.35;6.43;;;;;;;21.67;100.00;102181.78;5111345;28;20087;-50
2023/09/14 09:45:04;;;;;;;11.93;5.10;;;;;;;21.27;100.00;102177.38;5094006;28;20119;-49
2023/09/14 09:47:36;;;;;;;13.60;6.13;;;;;;;21.66;100.00;102179.25;5091323;28;20048;-53
2023/09/14 09:50:07;;;;;;;12.13;6.15;;;;;;;21.81;100.00;102174.34;5094638;28;20080;-52
2023/09/14 09:52:36;;;;;;;15.60;6.00;;;;;;;21.97;100.00;102169.25;5094348;28;20078;-54
2023/09/14 09:55:06;;;;;;;15.75;5.47;;;;;;;21.97;100.00;102173.75;5094371;28;20055;-47
2023/09/14 09:57:36;;;;;;;11.60;5.13;;;;;;;21.97;100.00;102173.75;5092941;28;20580;-50
2023/09/14 10:00:12;;;;;;;11.35;5.90;;;;;;;21.97;100.00;102179.13;5094050;28;20052;-54
2023/09/14 10:02:42;;;;;;;13.68;5.75;;;;;;;22.32;100.00;102169.59;5094062;28;20043;-48
2023/09/14 10:05:10;;;;;;;15.48;5.60;;;;;;;22.50;100.00;102175.09;5094119;28;20040;-58
2023/09/14 10:07:40;;;;;;;11.98;5.72;;;;;;;22.68;100.00;102170.63;5094298;28;20460;-54
2023/09/14 10:10:09;;;;;;;12.55;5.30;;;;;;;22.68;100.00;102172.47;5094284;28;20486;-56
2023/09/14 10:12:42;;;;;;;10.93;3.90;;;;;;;22.38;100.00;102166.38;5093839;28;20130;-53
2023/09/14 10:15:11;;;;;;;10.57;4.32;;;;;;;22.14;100.00;102169.50;5093925;28;20510;-49
2023/09/14 10:17:40;;;;;;;11.05;4.07;;;;;;;22.05;100.00;102169.38;5091258;28;20048;-51
2023/09/14 10:20:11;;;;;;;14.32;4.97;;;;;;;22.45;100.00;102167.47;5088757;28;20058;-51
2023/09/14 10:22:41;;;;;;;11.77;4.32;;;;;;;22.82;100.00;102169.28;5092665;28;20044;-53
2023/09/14 10:25:10;;;;;;;9.75;4.05;;;;;;;23.13;100.00;102166.31;5093676;28;20052;-52
2023/09/14 10:27:40;;;;;;;9.52;3.45;;;;;;;23.06;100.00;102170.56;5093779;28;20036;-48
2023/09/14 10:30:15;;;;;;;10.32;3.40;;;;;;;23.45;100.00;102167.63;5093897;28;20039;-52
2023/09/14 10:32:44;;;;;;;9.15;3.40;;;;;;;23.63;98.91;102162.28;5093973;28;20048;-51
2023/09/14 10:35:14;;;;;;;9.05;3.50;;;;;;;23.42;93.21;102159.91;5088926;28;20060;-55
2023/09/14 10:37:45;;;;;;;9.65;3.10;;;;;;;23.20;100.00;102155.81;5088340;28;20050;-51
2023/09/14 10:40:15;;;;;;;8.07;3.08;;;;;;;22.65;96.29;102152.16;5093554;28;20052;-51
2023/09/14 10:42:43;;;;;;;8.82;3.22;;;;;;;23.20;92.34;102159.34;5093476;28;20044;-50
2023/09/14 10:45:14;;;;;;;10.05;3.47;;;;;;;24.04;98.69;102151.06;5093825;28;20070;-53
2023/09/14 10:47:46;;;;;;;9.20;3.25;;;;;;;23.95;90.29;102142.91;5092042;28;20040;-53
2023/09/14 10:50:19;;;;;;;8.70;3.28;;;;;;;24.58;93.05;102145.44;5091717;28;20126;-52
2023/09/14 10:52:48;;;;;;;9.73;3.55;;;;;;;24.55;90.33;102143.94;5087429;28;20048;-49
2023/09/14 10:55:17;;;;;;;9.15;3.42;;;;;;;24.89;83.78;102137.69;5091145;28;20036;-51
2023/09/14 10:57:46;;;;;;;10.15;3.22;;;;;;;24.89;85.45;102135.00;5093465;28;20044;-52
2023/09/14 11:00:33;;;;;;;7.68;3.03;;;;;;;25.06;85.05;102143.97;5092758;28;20528;-53
2023/09/14 11:03:23;;;;;;;7.60;3.25;;;;;;;25.47;82.76;102127.06;5093334;28;20085;-53
2023/09/14 11:05:55;;;;;;;7.72;3.35;;;;;;;25.27;78.38;102131.91;5093210;28;20044;-50
2023/09/14 11:08:29;;;;;;;8.20;2.80;;;;;;;25.47;77.77;102129.78;5088255;28;20055;-50
2023/09/14 11:11:01;;;;;;;8.50;2.95;;;;;;;25.56;70.95;102122.53;5088383;28;20121;-52
2023/09/14 11:13:34;;;;;;;6.00;2.75;;;;;;;25.90;70.83;102124.19;5088824;28;20059;-51
2023/09/14 11:16:12;;;;;;;9.02;3.15;;;;;;;25.86;69.20;102122.84;5089191;28;20055;-54
2023/09/14 11:18:54;;;;;;;7.57;2.63;;;;;;;26.16;70.42;102118.59;5090082;28;20105;-53
2023/09/14 11:21:43;;;;;;;7.80;2.53;;;;;;;26.00;69.68;102122.16;5093189;28;20499;-52
2023/09/14 11:24:16;;;;;;;9.25;3.03;;;;;;;26.24;68.96;102113.16;5093106;28;20076;-52
2023/09/14 11:26:53;;;;;;;9.25;3.72;;;;;;;26.41;69.78;102118.50;5093086;28;20510;-53